sensor_id;sensor_type;location;lat;lon;timestamp;pressure;altitude;pressure_sealevel;temperature;humidity
17072;BME280;7731;50.720;6.912;2023-06-24T00:00:47;100917.69;;;18.19;100.00
17072;BME280;7731;50.720;6.912;2023-06-24T00:03:19;100923.34;;;18.26;100.00
17072;BME280;7731;50.720;6.912;2023-06-24T00:05:52;100923.53;;;18.23;100.00
17072;BME280;7731;50.720;6.912;2023-06-24T00:08:24;100917.28;;;18.26;100.00
17072;BME280;7731;50.720;6.912;2023-06-24T00:11:02;100920.47;;;18.42;100.00
17072;BME280;7731;50.720;6.912;2023-06-24T00:13:33;100919.50;;;18.56;100.00
17072;BME280;7731;50.720;6.912;2023-06-24T00:16:04;100918.06;;;18.52;100.00
17072;BME280;7731;50.720;6.912;2023-06-24T00:18:35;100922.38;;;18.40;100.00
17072;BME280;7731;50.720;6.912;2023-06-24T00:21:10;100920.84;;;18.12;100.00
17072;BME280;7731;50.720;6.912;2023-06-24T00:23:44;100921.38;;;17.91;100.00
17072;BME280;7731;50.720;6.912;2023-06-24T00:26:16;100918.97;;;18.14;100.00
17072;BME280;7731;50.720;6.912;2023-06-24T00:28:47;100916.56;;;17.85;100.00
17072;BME280;7731;50.720;6.912;2023-06-24T00:31:17;100914.78;;;17.85;100.00
17072;BME280;7731;50.720;6.912;2023-06-24T00:33:51;100911.91;;;17.90;100.00
17072;BME280;7731;50.720;6.912;2023-06-24T00:36:26;100909.84;;;17.95;100.00
17072;BME280;7731;50.720;6.912;2023-06-24T00:38:59;100908.13;;;17.81;100.00
17072;BME280;7731;50.720;6.912;2023-06-24T00:41:31;100904.81;;;17.66;100.00
17072;BME280;7731;50.720;6.912;2023-06-24T00:44:02;100915.81;;;17.83;100.00
17072;BME280;7731;50.720;6.912;2023-06-24T00:46:32;100904.59;;;17.70;100.00
17072;BME280;7731;50.720;6.912;2023-06-24T00:49:03;100904.66;;;17.55;100.00
17072;BME280;7731;50.720;6.912;2023-06-24T00:51:36;100916.22;;;17.51;100.00
17072;BME280;7731;50.720;6.912;2023-06-24T00:54:07;100912.56;;;17.41;100.00
17072;BME280;7731;50.720;6.912;2023-06-24T00:56:37;100913.06;;;17.46;100.00
17072;BME280;7731;50.720;6.912;2023-06-24T00:59:12;100919.84;;;17.48;100.00
17072;BME280;7731;50.720;6.912;2023-06-24T01:01:44;100918.94;;;17.62;100.00
17072;BME280;7731;50.720;6.912;2023-06-24T01:04:19;100927.00;;;17.45;100.00
17072;BME280;7731;50.720;6.912;2023-06-24T01:06:56;100927.00;;;17.45;100.00
17072;BME280;7731;50.720;6.912;2023-06-24T01:09:27;100919.97;;;17.73;100.00
17072;BME280;7731;50.720;6.912;2023-06-24T01:11:58;100918.06;;;17.49;100.00
17072;BME280;7731;50.720;6.912;2023-06-24T01:14:35;100911.53;;;17.43;100.00
17072;BME280;7731;50.720;6.912;2023-06-24T01:17:12;100909.34;;;17.50;100.00
17072;BME280;7731;50.720;6.912;2023-06-24T01:20:02;100914.34;;;17.53;100.00
17072;BME280;7731;50.720;6.912;2023-06-24T01:23:11;100912.25;;;17.45;100.00
17072;BME280;7731;50.720;6.912;2023-06-24T01:26:21;100914.94;;;17.31;100.00
17072;BME280;7731;50.720;6.912;2023-06-24T01:32:29;100908.28;;;17.00;100.00
17072;BME280;7731;50.720;6.912;2023-06-24T01:35:08;100905.28;;;17.06;100.00
17072;BME280;7731;50.720;6.912;2023-06-24T01:37:45;100907.28;;;17.15;100.00
17072;BME280;7731;50.720;6.912;2023-06-24T01:40:25;100907.78;;;17.07;100.00
17072;BME280;7731;50.720;6.912;2023-06-24T01:43:00;100900.94;;;17.06;100.00
17072;BME280;7731;50.720;6.912;2023-06-24T01:45:37;100905.50;;;17.03;100.00
17072;BME280;7731;50.720;6.912;2023-06-24T01:48:23;100898.75;;;17.00;100.00
17072;BME280;7731;50.720;6.912;2023-06-24T01:50:59;100888.31;;;16.87;100.00
17072;BME280;7731;50.720;6.912;2023-06-24T01:53:37;100900.16;;;16.77;100.00
17072;BME280;7731;50.720;6.912;2023-06-24T01:56:14;100894.97;;;16.77;100.00
17072;BME280;7731;50.720;6.912;2023-06-24T01:58:47;100899.13;;;16.79;100.00
17072;BME280;7731;50.720;6.912;2023-06-24T02:01:19;100910.16;;;16.83;100.00
17072;BME280;7731;50.720;6.912;2023-06-24T02:03:59;100905.00;;;16.69;100.00
17072;BME280;7731;50.720;6.912;2023-06-24T02:06:40;100909.56;;;16.65;100.00
17072;BME280;7731;50.720;6.912;2023-06-24T02:09:12;100901.25;;;16.46;100.00
17072;BME280;7731;50.720;6.912;2023-06-24T02:11:46;100899.31;;;16.35;100.00
17072;BME280;7731;50.720;6.912;2023-06-24T02:14:19;100904.59;;;16.33;100.00
17072;BME280;7731;50.720;6.912;2023-06-24T02:16:54;100895.81;;;16.36;100.00
17072;BME280;7731;50.720;6.912;2023-06-24T02:19:46;100897.19;;;16.27;100.00
17072;BME280;7731;50.720;6.912;2023-06-24T02:22:18;100904.31;;;16.09;100.00
17072;BME280;7731;50.720;6.912;2023-06-24T02:25:06;100897.00;;;16.01;100.00
17072;BME280;7731;50.720;6.912;2023-06-24T02:27:41;100901.56;;;15.98;100.00
17072;BME280;7731;50.720;6.912;2023-06-24T02:30:14;100894.16;;;16.06;100.00
17072;BME280;7731;50.720;6.912;2023-06-24T02:32:44;100888.59;;;16.12;100.00
17072;BME280;7731;50.720;6.912;2023-06-24T02:35:17;100904.88;;;16.29;100.00
17072;BME280;7731;50.720;6.912;2023-06-24T02:37:48;100897.84;;;16.31;100.00
17072;BME280;7731;50.720;6.912;2023-06-24T02:40:19;100897.38;;;16.24;100.00
17072;BME280;7731;50.720;6.912;2023-06-24T02:42:49;100893.69;;;16.28;100.00
17072;BME280;7731;50.720;6.912;2023-06-24T02:45:20;100901.88;;;16.49;100.00
17072;BME280;7731;50.720;6.912;2023-06-24T02:47:52;100899.03;;;16.39;100.00
17072;BME280;7731;50.720;6.912;2023-06-24T02:50:35;100895.19;;;16.18;100.00
17072;BME280;7731;50.720;6.912;2023-06-24T02:53:05;100902.28;;;16.00;100.00
17072;BME280;7731;50.720;6.912;2023-06-24T02:55:37;100893.13;;;16.23;100.00
17072;BME280;7731;50.720;6.912;2023-06-24T02:58:09;100896.19;;;16.30;100.00
17072;BME280;7731;50.720;6.912;2023-06-24T03:00:43;100898.88;;;16.28;100.00
17072;BME280;7731;50.720;6.912;2023-06-24T03:03:21;100897.84;;;16.31;100.00
17072;BME280;7731;50.720;6.912;2023-06-24T03:05:55;100895.34;;;16.29;100.00
17072;BME280;7731;50.720;6.912;2023-06-24T03:08:27;100895.72;;;16.23;100.00
17072;BME280;7731;50.720;6.912;2023-06-24T03:11:00;100904.16;;;16.12;100.00
17072;BME280;7731;50.720;6.912;2023-06-24T03:13:30;100904.16;;;16.12;100.00
17072;BME280;7731;50.720;6.912;2023-06-24T03:16:01;100904.69;;;15.88;100.00
17072;BME280;7731;50.720;6.912;2023-06-24T03:18:31;100913.03;;;15.79;100.00
17072;BME280;7731;50.720;6.912;2023-06-24T03:21:04;100912.13;;;15.95;100.00
17072;BME280;7731;50.720;6.912;2023-06-24T03:23:34;100906.94;;;15.95;100.00
17072;BME280;7731;50.720;6.912;2023-06-24T03:26:07;100914.44;;;15.99;100.00
17072;BME280;7731;50.720;6.912;2023-06-24T03:28:37;100907.50;;;16.14;100.00
17072;BME280;7731;50.720;6.912;2023-06-24T03:31:11;100916.38;;;16.10;100.00
17072;BME280;7731;50.720;6.912;2023-06-24T03:33:42;100910.25;;;16.25;100.00
17072;BME280;7731;50.720;6.912;2023-06-24T03:36:22;100913.97;;;15.93;100.00
17072;BME280;7731;50.720;6.912;2023-06-24T03:38:52;100917.38;;;16.07;100.00
17072;BME280;7731;50.720;6.912;2023-06-24T03:41:24;100914.91;;;16.20;100.00
17072;BME280;7731;50.720;6.912;2023-06-24T03:43:55;100905.72;;;16.29;100.00
17072;BME280;7731;50.720;6.912;2023-06-24T03:46:25;100912.94;;;16.53;100.00
17072;BME280;7731;50.720;6.912;2023-06-24T03:49:04;100907.78;;;16.66;100.00
17072;BME280;7731;50.720;6.912;2023-06-24T03:51:37;100912.63;;;16.57;100.00
17072;BME280;7731;50.720;6.912;2023-06-24T03:54:07;100911.47;;;16.34;100.00
17072;BME280;7731;50.720;6.912;2023-06-24T03:56:37;100909.50;;;16.38;100.00
17072;BME280;7731;50.720;6.912;2023-06-24T03:59:08;100911.97;;;16.68;100.00
17072;BME280;7731;50.720;6.912;2023-06-24T04:01:39;100914.66;;;16.67;100.00
17072;BME280;7731;50.720;6.912;2023-06-24T04:04:13;100918.38;;;16.63;100.00
17072;BME280;7731;50.720;6.912;2023-06-24T04:06:46;100917.78;;;16.72;100.00
17072;BME280;7731;50.720;6.912;2023-06-24T04:09:18;100922.38;;;16.39;100.00
17072;BME280;7731;50.720;6.912;2023-06-24T04:11:49;100927.50;;;16.27;100.00
17072;BME280;7731;50.720;6.912;2023-06-24T04:14:20;100926.53;;;16.28;100.00
17072;BME280;7731;50.720;6.912;2023-06-24T04:16:52;100924.50;;;16.18;100.00
17072;BME280;7731;50.720;6.912;2023-06-24T04:19:23;100937.47;;;16.04;100.00
17072;BME280;7731;50.720;6.912;2023-06-24T04:21:56;100938.88;;;16.24;100.00
17072;BME280;7731;50.720;6.912;2023-06-24T04:24:26;100933.78;;;16.22;100.00
17072;BME280;7731;50.720;6.912;2023-06-24T04:26:57;100934.16;;;16.16;100.00
17072;BME280;7731;50.720;6.912;2023-06-24T04:29:30;100941.00;;;16.03;100.00
17072;BME280;7731;50.720;6.912;2023-06-24T04:32:02;100937.94;;;16.11;100.00
17072;BME280;7731;50.720;6.912;2023-06-24T04:34:32;100940.06;;;16.18;100.00
17072;BME280;7731;50.720;6.912;2023-06-24T04:37:05;100941.28;;;16.83;100.00
17072;BME280;7731;50.720;6.912;2023-06-24T04:39:36;100943.94;;;16.69;100.00
17072;BME280;7731;50.720;6.912;2023-06-24T04:42:06;100939.88;;;16.50;100.00
17072;BME280;7731;50.720;6.912;2023-06-24T04:44:37;100938.88;;;16.53;100.00
17072;BME280;7731;50.720;6.912;2023-06-24T04:47:07;100942.63;;;16.61;100.00
17072;BME280;7731;50.720;6.912;2023-06-24T04:49:38;100942.06;;;16.71;100.00
17072;BME280;7731;50.720;6.912;2023-06-24T04:52:11;100940.50;;;16.68;100.00
17072;BME280;7731;50.720;6.912;2023-06-24T04:54:42;100950.22;;;16.79;100.00
17072;BME280;7731;50.720;6.912;2023-06-24T04:57:26;100951.66;;;16.83;100.00
17072;BME280;7731;50.720;6.912;2023-06-24T04:59:57;100950.22;;;17.74;100.00
17072;BME280;7731;50.720;6.912;2023-06-24T05:02:30;100946.63;;;17.36;100.00
17072;BME280;7731;50.720;6.912;2023-06-24T05:05:01;100949.38;;;17.60;100.00
17072;BME280;7731;50.720;6.912;2023-06-24T05:07:36;100949.97;;;18.17;100.00
17072;BME280;7731;50.720;6.912;2023-06-24T05:10:07;100937.38;;;18.86;100.00
17072;BME280;7731;50.720;6.912;2023-06-24T05:12:41;100937.50;;;19.44;100.00
17072;BME280;7731;50.720;6.912;2023-06-24T05:15:12;100943.06;;;20.77;100.00
17072;BME280;7731;50.720;6.912;2023-06-24T05:17:43;100944.56;;;20.91;100.00
17072;BME280;7731;50.720;6.912;2023-06-24T05:20:34;100937.84;;;20.77;100.00
17072;BME280;7731;50.720;6.912;2023-06-24T05:23:12;100937.44;;;21.26;100.00
17072;BME280;7731;50.720;6.912;2023-06-24T05:25:42;100936.44;;;21.38;98.85
17072;BME280;7731;50.720;6.912;2023-06-24T05:28:15;100934.44;;;22.24;88.55
17072;BME280;7731;50.720;6.912;2023-06-24T05:30:45;100932.47;;;24.22;79.76
17072;BME280;7731;50.720;6.912;2023-06-24T05:33:17;100927.19;;;23.47;75.40
17072;BME280;7731;50.720;6.912;2023-06-24T05:35:48;100938.47;;;23.57;73.56
17072;BME280;7731;50.720;6.912;2023-06-24T05:38:21;100942.03;;;22.58;81.89
17072;BME280;7731;50.720;6.912;2023-06-24T05:40:54;100940.41;;;23.06;80.83
17072;BME280;7731;50.720;6.912;2023-06-24T05:43:26;100933.97;;;23.30;76.65
17072;BME280;7731;50.720;6.912;2023-06-24T05:46:00;100939.69;;;23.72;76.82
17072;BME280;7731;50.720;6.912;2023-06-24T05:48:33;100937.34;;;24.45;70.13
17072;BME280;7731;50.720;6.912;2023-06-24T05:51:03;100931.00;;;24.47;71.14
17072;BME280;7731;50.720;6.912;2023-06-24T05:53:38;100935.75;;;25.52;62.53
17072;BME280;7731;50.720;6.912;2023-06-24T05:56:12;100938.19;;;25.71;63.45
17072;BME280;7731;50.720;6.912;2023-06-24T05:58:43;100945.53;;;25.94;61.48
17072;BME280;7731;50.720;6.912;2023-06-24T06:01:16;100943.16;;;25.74;63.06
17072;BME280;7731;50.720;6.912;2023-06-24T06:03:49;100937.91;;;26.60;60.06
17072;BME280;7731;50.720;6.912;2023-06-24T06:06:22;100934.38;;;27.18;56.30
17072;BME280;7731;50.720;6.912;2023-06-24T06:08:56;100936.88;;;25.75;65.41
17072;BME280;7731;50.720;6.912;2023-06-24T06:11:26;100944.94;;;24.57;71.73
17072;BME280;7731;50.720;6.912;2023-06-24T06:13:56;100942.38;;;25.56;66.82
17072;BME280;7731;50.720;6.912;2023-06-24T06:16:27;100947.38;;;24.87;73.00
17072;BME280;7731;50.720;6.912;2023-06-24T06:18:58;100945.03;;;25.64;68.31
17072;BME280;7731;50.720;6.912;2023-06-24T06:21:28;100950.25;;;26.08;66.34
17072;BME280;7731;50.720;6.912;2023-06-24T06:24:05;100944.31;;;25.54;66.25
17072;BME280;7731;50.720;6.912;2023-06-24T06:26:42;100940.78;;;26.32;64.37
17072;BME280;7731;50.720;6.912;2023-06-24T06:29:13;100946.28;;;26.04;62.94
17072;BME280;7731;50.720;6.912;2023-06-24T06:31:43;100947.09;;;25.78;64.52
17072;BME280;7731;50.720;6.912;2023-06-24T06:34:14;100947.56;;;27.02;57.21
17072;BME280;7731;50.720;6.912;2023-06-24T06:36:44;100948.84;;;26.22;62.39
17072;BME280;7731;50.720;6.912;2023-06-24T06:39:17;100950.13;;;25.92;64.54
17072;BME280;7731;50.720;6.912;2023-06-24T06:41:47;100951.03;;;27.19;60.33
17072;BME280;7731;50.720;6.912;2023-06-24T06:44:17;100944.78;;;27.36;55.14
17072;BME280;7731;50.720;6.912;2023-06-24T06:46:51;100954.41;;;26.19;59.13
17072;BME280;7731;50.720;6.912;2023-06-24T06:49:21;100948.63;;;28.06;54.75
17072;BME280;7731;50.720;6.912;2023-06-24T06:51:53;100951.44;;;28.76;48.42
17072;BME280;7731;50.720;6.912;2023-06-24T06:54:29;100950.63;;;27.96;51.66
17072;BME280;7731;50.720;6.912;2023-06-24T06:57:01;100942.06;;;29.11;47.30
17072;BME280;7731;50.720;6.912;2023-06-24T06:59:32;100951.78;;;28.02;47.11
17072;BME280;7731;50.720;6.912;2023-06-24T07:02:06;100956.69;;;28.13;46.70
17072;BME280;7731;50.720;6.912;2023-06-24T07:04:39;100957.00;;;28.81;45.87
17072;BME280;7731;50.720;6.912;2023-06-24T07:07:12;100952.53;;;27.54;48.46
17072;BME280;7731;50.720;6.912;2023-06-24T07:09:45;100952.66;;;28.65;46.59
17072;BME280;7731;50.720;6.912;2023-06-24T07:12:15;100950.66;;;28.67;47.49
17072;BME280;7731;50.720;6.912;2023-06-24T07:14:45;100947.00;;;29.37;43.93
17072;BME280;7731;50.720;6.912;2023-06-24T07:17:16;100953.81;;;29.85;43.50
17072;BME280;7731;50.720;6.912;2023-06-24T07:19:46;100955.56;;;29.16;44.72
17072;BME280;7731;50.720;6.912;2023-06-24T07:22:19;100954.88;;;29.75;43.49
17072;BME280;7731;50.720;6.912;2023-06-24T07:24:52;100955.25;;;30.02;41.89
17072;BME280;7731;50.720;6.912;2023-06-24T07:27:26;100951.25;;;29.24;43.66
17072;BME280;7731;50.720;6.912;2023-06-24T07:30:06;100951.19;;;29.47;42.00
17072;BME280;7731;50.720;6.912;2023-06-24T07:32:39;100952.13;;;29.54;42.07
17072;BME280;7731;50.720;6.912;2023-06-24T07:35:15;100951.53;;;29.97;41.89
17072;BME280;7731;50.720;6.912;2023-06-24T07:37:49;100950.00;;;28.88;43.92
17072;BME280;7731;50.720;6.912;2023-06-24T07:40:22;100939.63;;;32.29;36.06
17072;BME280;7731;50.720;6.912;2023-06-24T07:42:53;100952.91;;;30.07;40.15
17072;BME280;7731;50.720;6.912;2023-06-24T07:45:37;100947.16;;;32.87;36.66
17072;BME280;7731;50.720;6.912;2023-06-24T07:48:07;100941.75;;;32.53;36.61
17072;BME280;7731;50.720;6.912;2023-06-24T07:50:39;100942.06;;;33.25;35.00
17072;BME280;7731;50.720;6.912;2023-06-24T07:53:12;100953.03;;;30.94;38.68
17072;BME280;7731;50.720;6.912;2023-06-24T07:55:55;100953.41;;;30.18;40.32
17072;BME280;7731;50.720;6.912;2023-06-24T07:58:26;100959.31;;;32.41;35.39
17072;BME280;7731;50.720;6.912;2023-06-24T08:00:56;100955.59;;;31.87;37.54
17072;BME280;7731;50.720;6.912;2023-06-24T08:03:26;100955.59;;;30.29;40.92
17072;BME280;7731;50.720;6.912;2023-06-24T08:05:57;100950.63;;;29.36;43.05
17072;BME280;7731;50.720;6.912;2023-06-24T08:08:27;100951.50;;;29.67;43.04
17072;BME280;7731;50.720;6.912;2023-06-24T08:11:00;100952.16;;;30.14;40.63
17072;BME280;7731;50.720;6.912;2023-06-24T08:13:30;100960.16;;;30.35;40.02
17072;BME280;7731;50.720;6.912;2023-06-24T08:16:00;100946.72;;;31.16;38.03
17072;BME280;7731;50.720;6.912;2023-06-24T08:18:31;100944.47;;;31.13;39.87
17072;BME280;7731;50.720;6.912;2023-06-24T08:21:01;100949.78;;;31.13;38.79
17072;BME280;7731;50.720;6.912;2023-06-24T08:23:46;100943.66;;;30.55;39.39
17072;BME280;7731;50.720;6.912;2023-06-24T08:26:20;100941.69;;;29.90;41.21
17072;BME280;7731;50.720;6.912;2023-06-24T08:28:53;100940.09;;;30.62;39.35
17072;BME280;7731;50.720;6.912;2023-06-24T08:31:26;100935.94;;;30.96;38.12
17072;BME280;7731;50.720;6.912;2023-06-24T08:34:08;100939.38;;;30.02;40.12
17072;BME280;7731;50.720;6.912;2023-06-24T08:36:39;100937.91;;;29.55;40.42
17072;BME280;7731;50.720;6.912;2023-06-24T08:39:09;100938.69;;;32.08;35.90
17072;BME280;7731;50.720;6.912;2023-06-24T08:41:54;100930.06;;;31.93;37.99
17072;BME280;7731;50.720;6.912;2023-06-24T08:44:27;100931.38;;;34.81;33.31
17072;BME280;7731;50.720;6.912;2023-06-24T08:46:57;100929.91;;;32.01;37.51
17072;BME280;7731;50.720;6.912;2023-06-24T08:49:30;100924.34;;;31.96;37.87
17072;BME280;7731;50.720;6.912;2023-06-24T08:52:14;100932.91;;;31.91;38.15
17072;BME280;7731;50.720;6.912;2023-06-24T08:54:51;100925.28;;;31.46;37.73
17072;BME280;7731;50.720;6.912;2023-06-24T08:57:30;100931.84;;;30.21;40.26
17072;BME280;7731;50.720;6.912;2023-06-24T09:00:01;100926.88;;;31.12;38.30
17072;BME280;7731;50.720;6.912;2023-06-24T09:02:32;100931.91;;;31.57;37.44
17072;BME280;7731;50.720;6.912;2023-06-24T09:05:06;100928.00;;;31.25;38.39
17072;BME280;7731;50.720;6.912;2023-06-24T09:07:37;100932.63;;;30.94;38.87
17072;BME280;7731;50.720;6.912;2023-06-24T09:10:30;100926.19;;;31.95;37.04
17072;BME280;7731;50.720;6.912;2023-06-24T09:13:06;100928.78;;;30.39;39.28
17072;BME280;7731;50.720;6.912;2023-06-24T09:15:38;100924.38;;;30.09;41.38
17072;BME280;7731;50.720;6.912;2023-06-24T09:18:13;100911.28;;;32.01;37.41
17072;BME280;7731;50.720;6.912;2023-06-24T09:20:47;100906.75;;;33.50;33.88
17072;BME280;7731;50.720;6.912;2023-06-24T09:23:18;100901.22;;;33.45;33.33
17072;BME280;7731;50.720;6.912;2023-06-24T09:25:56;100908.44;;;32.84;34.56
17072;BME280;7731;50.720;6.912;2023-06-24T09:28:29;100904.16;;;32.90;34.74
17072;BME280;7731;50.720;6.912;2023-06-24T09:31:09;100900.09;;;32.12;37.00
17072;BME280;7731;50.720;6.912;2023-06-24T09:33:46;100897.09;;;34.53;32.23
17072;BME280;7731;50.720;6.912;2023-06-24T09:36:19;100895.69;;;31.84;36.95
17072;BME280;7731;50.720;6.912;2023-06-24T09:38:49;100891.88;;;33.22;33.98
17072;BME280;7731;50.720;6.912;2023-06-24T09:41:20;100899.34;;;31.13;38.08
17072;BME280;7731;50.720;6.912;2023-06-24T09:43:58;100902.59;;;30.66;39.13
17072;BME280;7731;50.720;6.912;2023-06-24T09:46:30;100894.66;;;30.14;39.50
17072;BME280;7731;50.720;6.912;2023-06-24T09:49:07;100892.03;;;30.36;38.65
17072;BME280;7731;50.720;6.912;2023-06-24T09:51:48;100881.56;;;30.64;37.52
17072;BME280;7731;50.720;6.912;2023-06-24T09:54:20;100878.28;;;32.37;35.96
17072;BME280;7731;50.720;6.912;2023-06-24T09:56:53;100877.50;;;30.68;38.00
17072;BME280;7731;50.720;6.912;2023-06-24T09:59:27;100875.13;;;34.12;31.33
17072;BME280;7731;50.720;6.912;2023-06-24T10:01:59;100877.72;;;33.94;31.96
17072;BME280;7731;50.720;6.912;2023-06-24T10:04:31;100869.88;;;32.27;33.67
17072;BME280;7731;50.720;6.912;2023-06-24T10:07:03;100876.75;;;30.38;37.55
17072;BME280;7731;50.720;6.912;2023-06-24T10:09:38;100882.63;;;30.33;38.96
17072;BME280;7731;50.720;6.912;2023-06-24T10:12:10;100882.00;;;30.96;35.96
17072;BME280;7731;50.720;6.912;2023-06-24T10:14:43;100877.41;;;30.03;37.81
17072;BME280;7731;50.720;6.912;2023-06-24T10:17:13;100867.03;;;32.35;33.34
17072;BME280;7731;50.720;6.912;2023-06-24T10:19:46;100860.28;;;33.33;32.23
17072;BME280;7731;50.720;6.912;2023-06-24T10:22:21;100860.97;;;33.67;32.49
17072;BME280;7731;50.720;6.912;2023-06-24T10:24:53;100849.41;;;37.77;25.76
17072;BME280;7731;50.720;6.912;2023-06-24T10:27:24;100855.84;;;33.85;30.38
17072;BME280;7731;50.720;6.912;2023-06-24T10:30:03;100850.94;;;34.14;30.77
17072;BME280;7731;50.720;6.912;2023-06-24T10:32:42;100852.75;;;33.03;31.91
17072;BME280;7731;50.720;6.912;2023-06-24T10:35:24;100843.56;;;35.17;29.42
17072;BME280;7731;50.720;6.912;2023-06-24T10:37:59;100844.97;;;31.79;33.58
17072;BME280;7731;50.720;6.912;2023-06-24T10:40:37;100843.50;;;32.58;33.75
17072;BME280;7731;50.720;6.912;2023-06-24T10:43:28;100839.44;;;32.69;32.56
17072;BME280;7731;50.720;6.912;2023-06-24T10:46:15;100838.50;;;32.02;35.23
17072;BME280;7731;50.720;6.912;2023-06-24T10:48:47;100828.25;;;31.99;34.63
17072;BME280;7731;50.720;6.912;2023-06-24T10:51:18;100819.19;;;35.32;29.42
17072;BME280;7731;50.720;6.912;2023-06-24T10:53:50;100820.81;;;32.49;32.39
17072;BME280;7731;50.720;6.912;2023-06-24T10:56:30;100815.41;;;34.77;29.81
17072;BME280;7731;50.720;6.912;2023-06-24T10:59:01;100813.94;;;33.47;32.21
17072;BME280;7731;50.720;6.912;2023-06-24T11:01:34;100809.34;;;32.96;31.81
17072;BME280;7731;50.720;6.912;2023-06-24T11:04:06;100808.50;;;33.74;30.65
17072;BME280;7731;50.720;6.912;2023-06-24T11:06:58;100815.69;;;31.66;34.25
17072;BME280;7731;50.720;6.912;2023-06-24T11:09:29;100813.56;;;32.03;35.42
17072;BME280;7731;50.720;6.912;2023-06-24T11:12:02;100806.09;;;31.65;35.11
17072;BME280;7731;50.720;6.912;2023-06-24T11:14:33;100806.75;;;30.75;36.22
17072;BME280;7731;50.720;6.912;2023-06-24T11:17:10;100800.00;;;31.36;36.70
17072;BME280;7731;50.720;6.912;2023-06-24T11:19:40;100808.41;;;30.55;36.97
17072;BME280;7731;50.720;6.912;2023-06-24T11:22:11;100810.75;;;28.95;40.31
17072;BME280;7731;50.720;6.912;2023-06-24T11:24:41;100809.25;;;28.78;40.75
17072;BME280;7731;50.720;6.912;2023-06-24T11:27:11;100805.31;;;28.59;41.43
17072;BME280;7731;50.720;6.912;2023-06-24T11:29:42;100806.56;;;28.40;41.91
17072;BME280;7731;50.720;6.912;2023-06-24T11:32:19;100801.16;;;28.79;41.37
17072;BME280;7731;50.720;6.912;2023-06-24T11:34:50;100799.88;;;28.52;40.96
17072;BME280;7731;50.720;6.912;2023-06-24T11:37:20;100801.81;;;28.96;40.39
17072;BME280;7731;50.720;6.912;2023-06-24T11:40:06;100785.91;;;31.29;35.67
17072;BME280;7731;50.720;6.912;2023-06-24T11:42:38;100786.44;;;31.17;36.13
17072;BME280;7731;50.720;6.912;2023-06-24T11:45:10;100782.78;;;30.62;37.54
17072;BME280;7731;50.720;6.912;2023-06-24T11:47:47;100781.09;;;30.11;38.66
17072;BME280;7731;50.720;6.912;2023-06-24T11:50:26;100780.16;;;30.19;37.75
17072;BME280;7731;50.720;6.912;2023-06-24T11:52:56;100784.91;;;29.87;38.87
17072;BME280;7731;50.720;6.912;2023-06-24T11:55:31;100780.59;;;29.49;38.97
17072;BME280;7731;50.720;6.912;2023-06-24T11:58:04;100773.94;;;30.12;37.67
17072;BME280;7731;50.720;6.912;2023-06-24T12:00:39;100767.13;;;30.67;36.73
17072;BME280;7731;50.720;6.912;2023-06-24T12:03:22;100765.13;;;30.76;36.13
17072;BME280;7731;50.720;6.912;2023-06-24T12:05:54;100760.66;;;30.76;36.82
17072;BME280;7731;50.720;6.912;2023-06-24T12:08:25;100753.06;;;31.43;35.12
17072;BME280;7731;50.720;6.912;2023-06-24T12:11:15;100750.34;;;30.60;36.77
17072;BME280;7731;50.720;6.912;2023-06-24T12:13:46;100752.84;;;31.38;35.03
17072;BME280;7731;50.720;6.912;2023-06-24T12:16:18;100742.97;;;31.67;34.67
17072;BME280;7731;50.720;6.912;2023-06-24T12:18:53;100754.16;;;31.56;34.12
17072;BME280;7731;50.720;6.912;2023-06-24T12:21:25;100737.94;;;31.37;34.43
17072;BME280;7731;50.720;6.912;2023-06-24T12:24:04;100735.69;;;30.99;36.74
17072;BME280;7731;50.720;6.912;2023-06-24T12:26:37;100749.84;;;31.06;36.04
17072;BME280;7731;50.720;6.912;2023-06-24T12:29:10;100736.53;;;29.27;38.77
17072;BME280;7731;50.720;6.912;2023-06-24T12:31:43;100736.00;;;30.04;37.42
17072;BME280;7731;50.720;6.912;2023-06-24T12:34:16;100740.53;;;30.10;37.80
17072;BME280;7731;50.720;6.912;2023-06-24T12:36:48;100736.03;;;29.38;39.71
17072;BME280;7731;50.720;6.912;2023-06-24T12:39:18;100737.13;;;29.95;38.49
17072;BME280;7731;50.720;6.912;2023-06-24T12:41:51;100736.75;;;29.62;39.64
17072;BME280;7731;50.720;6.912;2023-06-24T12:44:21;100738.09;;;29.57;39.62
17072;BME280;7731;50.720;6.912;2023-06-24T12:46:52;100734.75;;;29.49;39.04
17072;BME280;7731;50.720;6.912;2023-06-24T12:49:27;100725.81;;;30.08;38.06
17072;BME280;7731;50.720;6.912;2023-06-24T12:51:57;100732.00;;;30.65;37.20
17072;BME280;7731;50.720;6.912;2023-06-24T12:54:27;100730.88;;;30.03;38.48
17072;BME280;7731;50.720;6.912;2023-06-24T12:56:58;100730.06;;;31.09;35.98
17072;BME280;7731;50.720;6.912;2023-06-24T12:59:40;100728.28;;;31.23;36.37
17072;BME280;7731;50.720;6.912;2023-06-24T13:02:16;100726.53;;;29.95;38.23
17072;BME280;7731;50.720;6.912;2023-06-24T13:04:49;100726.63;;;29.87;37.97
17072;BME280;7731;50.720;6.912;2023-06-24T13:07:20;100731.94;;;30.08;37.75
17072;BME280;7731;50.720;6.912;2023-06-24T13:09:50;100727.97;;;29.61;39.64
17072;BME280;7731;50.720;6.912;2023-06-24T13:12:20;100734.47;;;29.44;38.62
17072;BME280;7731;50.720;6.912;2023-06-24T13:14:51;100728.28;;;29.88;37.10
17072;BME280;7731;50.720;6.912;2023-06-24T13:17:24;100722.41;;;29.92;36.28
17072;BME280;7731;50.720;6.912;2023-06-24T13:19:57;100726.13;;;29.77;36.81
17072;BME280;7731;50.720;6.912;2023-06-24T13:22:28;100712.22;;;30.18;35.90
17072;BME280;7731;50.720;6.912;2023-06-24T13:25:00;100708.75;;;29.89;35.46
17072;BME280;7731;50.720;6.912;2023-06-24T13:27:30;100709.78;;;29.95;36.39
17072;BME280;7731;50.720;6.912;2023-06-24T13:30:00;100709.06;;;30.51;35.30
17072;BME280;7731;50.720;6.912;2023-06-24T13:32:31;100704.63;;;30.58;35.07